createdAt,value
2018-07-08T00:04:04.779Z,16
2018-07-08T00:09:07.099Z,15.9
2018-07-08T00:14:06.846Z,15.8
2018-07-08T00:19:07.030Z,15.9
2018-07-08T00:24:06.958Z,15.8
2018-07-08T00:29:06.843Z,15.8
2018-07-08T00:34:06.837Z,15.7
2018-07-08T00:39:06.858Z,15.6
2018-07-08T00:44:09.566Z,15.6
2018-07-08T00:49:09.491Z,15.6
2018-07-08T00:54:22.156Z,15.6
2018-07-08T00:59:22.058Z,15.5
2018-07-08T01:04:22.082Z,15.5
2018-07-08T01:09:22.127Z,15.5
2018-07-08T01:14:21.888Z,15.4
2018-07-08T01:19:21.866Z,15.3
2018-07-08T01:24:22.106Z,15.4
2018-07-08T01:29:22.293Z,15.5
2018-07-08T01:34:22.165Z,15.4
2018-07-08T01:39:34.695Z,15.4
2018-07-08T01:44:34.398Z,15.4
2018-07-08T01:49:34.420Z,15.2
2018-07-08T01:54:34.290Z,15.3
2018-07-08T01:59:34.305Z,15.4
2018-07-08T02:04:34.277Z,15.4
2018-07-08T02:09:34.309Z,15.4
2018-07-08T02:14:34.314Z,15.4
2018-07-08T02:19:34.429Z,15.5
2018-07-08T02:24:46.784Z,15.5
2018-07-08T02:29:46.416Z,15.5
2018-07-08T02:34:46.736Z,15.5
2018-07-08T02:39:46.687Z,15.6
2018-07-08T02:44:46.486Z,15.6
2018-07-08T02:49:46.463Z,15.5
2018-07-08T02:54:46.684Z,15.7
2018-07-08T02:59:51.306Z,15.7
2018-07-08T03:04:51.150Z,15.7
2018-07-08T03:10:03.590Z,15.8
2018-07-08T03:15:03.347Z,15.8
2018-07-08T03:20:03.445Z,15.8
2018-07-08T03:25:03.330Z,15.8
2018-07-08T03:30:03.517Z,15.9
2018-07-08T03:35:03.363Z,15.9
2018-07-08T03:40:03.342Z,15.8
2018-07-08T03:45:03.857Z,15.9
2018-07-08T03:50:03.673Z,15.9
2018-07-08T03:55:16.485Z,15.9
2018-07-08T04:00:16.417Z,15.9
2018-07-08T04:05:16.465Z,16
2018-07-08T04:10:16.369Z,15.9
2018-07-08T04:15:16.427Z,16
2018-07-08T04:20:16.337Z,16
2018-07-08T04:25:16.247Z,16
2018-07-08T04:30:16.878Z,16.1
2018-07-08T04:35:16.688Z,16.2
2018-07-08T04:40:29.399Z,16.3
2018-07-08T04:45:29.352Z,16.4
2018-07-08T04:50:29.378Z,16.4
2018-07-08T04:55:29.274Z,16.5
2018-07-08T05:00:29.155Z,16.7
2018-07-08T05:05:30.395Z,16.7
2018-07-08T05:10:30.300Z,16.9
2018-07-08T05:15:30.152Z,16.9
2018-07-08T05:20:30.234Z,17
2018-07-08T05:25:30.164Z,17
2018-07-08T05:30:30.147Z,17.1
2018-07-08T05:35:30.149Z,17.2
2018-07-08T05:40:30.711Z,17.2
2018-07-08T05:45:30.438Z,17.3
2018-07-08T05:50:43.323Z,17.3
2018-07-08T05:55:43.047Z,17.5
2018-07-08T06:00:43.156Z,17.7
2018-07-08T06:05:43.002Z,17.9
2018-07-08T06:10:43.213Z,18
2018-07-08T06:15:43.254Z,18
2018-07-08T06:20:43.075Z,18.4
2018-07-08T06:25:44.292Z,18.7
2018-07-08T06:30:44.013Z,18.9
2018-07-08T06:35:56.708Z,19.5
2018-07-08T06:40:56.644Z,20
2018-07-08T06:45:56.566Z,20.1
2018-07-08T06:50:56.589Z,20.1
2018-07-08T06:55:56.636Z,20.3
2018-07-08T07:00:56.549Z,20.5
2018-07-08T07:05:56.430Z,20.6
2018-07-08T07:10:56.627Z,20.8
2018-07-08T07:15:56.577Z,20.9
2018-07-08T07:20:56.487Z,20.8
2018-07-08T07:25:56.630Z,20.8
2018-07-08T07:30:56.494Z,21.2
2018-07-08T07:35:58.323Z,21.3
2018-07-08T07:40:58.052Z,21.6
2018-07-08T07:46:10.238Z,22
2018-07-08T07:51:10.118Z,22.2
2018-07-08T07:56:09.989Z,21.8
2018-07-08T08:01:09.998Z,21.6
2018-07-08T08:06:09.994Z,22.3
2018-07-08T08:11:09.987Z,22.2
2018-07-08T08:16:10.009Z,22.1
2018-07-08T08:21:10.006Z,21.7
2018-07-08T08:26:09.948Z,21.7
2018-07-08T08:31:11.847Z,21.7
2018-07-08T08:36:11.572Z,22
2018-07-08T08:41:11.620Z,22.3
2018-07-08T08:46:11.797Z,22.4
2018-07-08T08:51:11.619Z,22.5
2018-07-08T08:56:11.604Z,22.6
2018-07-08T09:01:11.644Z,22.7
2018-07-08T09:06:11.606Z,22.5
2018-07-08T09:11:11.623Z,22.5
2018-07-08T09:16:11.676Z,22.8
2018-07-08T09:21:11.618Z,22.9
2018-07-08T09:26:11.645Z,23.1
2018-07-08T09:31:11.638Z,23.2
2018-07-08T09:36:11.673Z,23.4
2018-07-08T09:41:23.567Z,23
2018-07-08T09:46:22.938Z,23.1
2018-07-08T09:51:23.381Z,23.4
2018-07-08T09:56:22.922Z,23.5
2018-07-08T10:01:22.970Z,23.9
2018-07-08T10:06:22.947Z,23.8
2018-07-08T10:11:22.953Z,23.8
2018-07-08T10:16:23.854Z,23.9
2018-07-08T10:21:23.292Z,23.9
2018-07-08T10:26:35.602Z,24.2
2018-07-08T10:31:35.330Z,24.4
2018-07-08T10:36:35.393Z,24.3
2018-07-08T10:41:35.345Z,24.2
2018-07-08T10:46:35.467Z,24.2
2018-07-08T10:51:35.345Z,24.5
2018-07-08T10:56:35.340Z,24.4
2018-07-08T11:01:35.461Z,25.3
2018-07-08T11:06:35.352Z,25.7
2018-07-08T11:11:35.353Z,25.4
2018-07-08T11:16:35.591Z,25.6
2018-07-08T11:21:35.332Z,25.3
2018-07-08T11:26:36.706Z,25.2
2018-07-08T11:31:36.610Z,25.7
2018-07-08T11:36:48.675Z,24.9
2018-07-08T11:41:47.982Z,24.9
2018-07-08T11:46:47.960Z,25.8
2018-07-08T11:51:47.947Z,25.6
2018-07-08T11:56:47.955Z,25.4
2018-07-08T12:01:47.976Z,25.3
2018-07-08T12:06:48.103Z,25.7
2018-07-08T12:11:50.331Z,26.1
2018-07-08T12:16:50.054Z,26
2018-07-08T12:22:02.901Z,26.3
2018-07-08T12:27:02.636Z,25.7
2018-07-08T12:32:02.634Z,25.7
2018-07-08T12:37:02.646Z,25.1
2018-07-08T12:42:02.647Z,24.9
2018-07-08T12:47:02.815Z,25.5
2018-07-08T12:52:02.767Z,26.1
2018-07-08T12:57:03.003Z,26.5
2018-07-08T13:02:02.923Z,26.5
2018-07-08T13:07:18.279Z,26.5
2018-07-08T13:12:18.133Z,26.3
2018-07-08T13:17:18.180Z,26.8
2018-07-08T13:22:18.012Z,26.6
2018-07-08T13:27:18.025Z,27
2018-07-08T13:32:18.096Z,26.8
2018-07-08T13:37:18.192Z,27.3
2018-07-08T13:42:23.083Z,27.4
2018-07-08T13:47:23.005Z,27.2
2018-07-08T13:52:35.865Z,27.8
2018-07-08T13:57:35.764Z,27.9
2018-07-08T14:02:35.795Z,27.9
2018-07-08T14:07:35.542Z,28
2018-07-08T14:12:35.585Z,27.6
2018-07-08T14:17:35.766Z,27.7
2018-07-08T14:22:35.594Z,28
2018-07-08T14:27:37.370Z,27.4
2018-07-08T14:32:37.215Z,26.9
2018-07-08T14:37:49.743Z,25.9
2018-07-08T14:42:49.473Z,25.5
2018-07-08T14:47:49.603Z,25.3
2018-07-08T14:52:49.635Z,25.1
2018-07-08T14:57:49.545Z,25.1
2018-07-08T15:02:49.478Z,25
2018-07-08T15:07:49.644Z,24.8
2018-07-08T15:12:50.671Z,24.6
2018-07-08T15:17:50.403Z,24.4
2018-07-08T15:23:03.282Z,24.3
2018-07-08T15:28:03.198Z,24.2
2018-07-08T15:33:03.005Z,24.2
2018-07-08T15:38:03.151Z,24
2018-07-08T15:43:03.196Z,23.8
2018-07-08T15:48:03.011Z,23.8
2018-07-08T15:53:03.158Z,23.7
2018-07-08T15:58:03.035Z,23.6
2018-07-08T16:03:03.324Z,23.6
2018-07-08T16:08:15.000Z,23.5
2018-07-08T16:13:14.735Z,23.3
2018-07-08T16:18:14.817Z,23.3
2018-07-08T16:23:14.729Z,23.2
2018-07-08T16:28:14.822Z,23.1
2018-07-08T16:33:14.824Z,23
2018-07-08T16:38:14.821Z,22.8
2018-07-08T16:43:14.907Z,22.8
2018-07-08T16:48:17.919Z,22.7
2018-07-08T16:53:30.029Z,22.6
2018-07-08T16:58:29.941Z,22.6
2018-07-08T17:03:29.768Z,22.6
2018-07-08T17:08:29.998Z,22.5
2018-07-08T17:13:29.783Z,22.5
2018-07-08T17:18:30.983Z,22.5
2018-07-08T17:23:29.975Z,22.5
2018-07-08T17:28:29.921Z,22.4
2018-07-08T17:33:30.026Z,22.5
2018-07-08T17:38:45.164Z,22.4
2018-07-08T17:43:45.103Z,22.4
2018-07-08T17:48:44.884Z,22.6
2018-07-08T17:53:45.056Z,22.7
2018-07-08T17:58:44.995Z,22.6
2018-07-08T18:03:44.887Z,22.4
2018-07-08T18:08:45.048Z,22.3
2018-07-08T18:13:47.159Z,22.2
2018-07-08T18:18:46.889Z,22.1
2018-07-08T18:24:01.750Z,21.9
2018-07-08T18:29:01.492Z,21.6
2018-07-08T18:34:01.730Z,21.5
2018-07-08T18:39:01.625Z,21.3
2018-07-08T18:44:01.699Z,21.2
2018-07-08T18:49:01.715Z,21.2
2018-07-08T18:54:01.514Z,21.1
2018-07-08T18:59:02.801Z,21.1
2018-07-08T19:04:02.548Z,20.9
2018-07-08T19:09:17.114Z,20.8
2018-07-08T19:14:16.808Z,20.7
2018-07-08T19:19:16.962Z,20.6
2018-07-08T19:24:16.833Z,20.6
2018-07-08T19:29:17.040Z,20.5
2018-07-08T19:34:17.039Z,20.3
2018-07-08T19:39:16.996Z,20.3
2018-07-08T19:44:17.697Z,20.2
2018-07-08T19:49:17.402Z,20.2
2018-07-08T19:54:30.048Z,20
2018-07-08T19:59:29.955Z,20
2018-07-08T20:04:29.783Z,19.9
2018-07-08T20:09:29.792Z,20
2018-07-08T20:14:29.803Z,20
2018-07-08T20:19:29.782Z,19.9
2018-07-08T20:24:30.021Z,19.9
2018-07-08T20:29:30.059Z,19.8
2018-07-08T20:34:29.857Z,19.8
2018-07-08T20:39:29.753Z,19.8
2018-07-08T20:44:30.249Z,19.7
2018-07-08T20:49:29.971Z,19.7
2018-07-08T20:54:29.969Z,19.6
2018-07-08T20:59:30.393Z,19.5
2018-07-08T21:04:30.044Z,19.6
2018-07-08T21:09:30.046Z,19.6
2018-07-08T21:14:30.055Z,19.6
2018-07-08T21:19:30.066Z,19.5
2018-07-08T21:24:30.032Z,19.5
2018-07-08T21:29:41.848Z,19.5
2018-07-08T21:34:41.690Z,19.3
2018-07-08T21:39:41.785Z,19.4
2018-07-08T21:44:41.842Z,19.3
2018-07-08T21:49:41.731Z,19.1
2018-07-08T21:54:41.795Z,19.3
2018-07-08T21:59:41.707Z,19.3
2018-07-08T22:04:42.079Z,19.2
2018-07-08T22:09:42.160Z,19.3
2018-07-08T22:14:55.302Z,19.2
2018-07-08T22:19:55.155Z,19.2
2018-07-08T22:24:55.034Z,19.1
2018-07-08T22:29:55.077Z,19
2018-07-08T22:34:55.003Z,18.9
2018-07-08T22:39:55.054Z,18.9
2018-07-08T22:44:55.046Z,18.8
2018-07-08T22:49:58.193Z,18.8
2018-07-08T22:54:58.068Z,18.7
2018-07-08T23:00:10.718Z,18.7
2018-07-08T23:05:10.441Z,18.7
2018-07-08T23:10:10.550Z,18.6
2018-07-08T23:15:10.437Z,18.5
2018-07-08T23:20:10.715Z,18.4
2018-07-08T23:25:10.671Z,18.3
2018-07-08T23:30:10.447Z,18.2
2018-07-08T23:35:12.367Z,18.1
2018-07-08T23:40:12.208Z,18.1
2018-07-08T23:45:27.219Z,18
2018-07-08T23:50:26.938Z,17.9
2018-07-08T23:55:26.960Z,17.8
